Time;durP1;ratioP1;P1;durP2;ratioP2;P2;SDS_P1;SDS_P2;PMS_P1;PMS_P2;Temp;Humidity;BMP_temperature;BMP_pressure;BME280_temperature;BME280_humidity;BME280_pressure;Samples;Min_cycle;Max_cycle;Signal;HPM_P1;HPM_P2
2024/03/30 00:01:22;;;;;;;69.63;8.02;;;;;;;;;;10444566;28;20343;-77
2024/03/30 00:06:24;;;;;;;51.08;6.35;;;;;;;;;;10456268;28;20040;-77
2024/03/30 00:11:25;;;;;;;47.83;7.35;;;;;;;;;;10450149;28;20041;-78
2024/03/30 00:16:31;;;;;;;42.08;5.90;;;;;;;;;;10466380;28;20144;-76
2024/03/30 00:21:34;;;;;;;63.05;6.47;;;;;;;;;;10446385;28;20223;-75
2024/03/30 00:26:36;;;;;;;67.43;8.90;;;;;;;;;;10462404;28;20098;-78
2024/03/30 00:31:39;;;;;;;55.08;6.88;;;;;;;;;;10435776;28;20039;-79
2024/03/30 00:36:41;;;;;;;56.08;7.22;;;;;;;;;;10440232;28;20051;-75
2024/03/30 00:41:42;;;;;;;65.28;7.30;;;;;;;;;;10455862;28;20554;-77
2024/03/30 00:46:46;;;;;;;60.05;8.52;;;;;;;;;;10442444;28;20346;-75
2024/03/30 00:51:47;;;;;;;49.60;6.32;;;;;;;;;;10449604;28;20213;-75
2024/03/30 00:56:49;;;;;;;48.25;6.05;;;;;;;;;;10433212;28;20047;-74
2024/03/30 01:01:52;;;;;;;69.53;7.43;;;;;;;;;;10446858;28;20047;-78
2024/03/30 01:06:56;;;;;;;40.88;5.88;;;;;;;;;;10443396;28;20425;-78
2024/03/30 01:11:58;;;;;;;;;;;;;;;;;;10463776;28;20141;-78
2024/03/30 01:17:02;;;;;;;41.63;6.35;;;;;;;;;;10438706;28;20357;-78
2024/03/30 01:22:03;;;;;;;36.92;4.78;;;;;;;;;;10453331;28;20048;-78
2024/03/30 01:27:08;;;;;;;47.47;6.60;;;;;;;;;;10453781;28;20044;-77
2024/03/30 01:32:18;;;;;;;40.47;5.80;;;;;;;;;;10453656;28;20513;-77
2024/03/30 01:37:21;;;;;;;47.75;5.10;;;;;;;;;;10461781;28;20056;-77
2024/03/30 01:42:28;;;;;;;21.15;3.45;;;;;;;;;;10449510;28;20044;-77
2024/03/30 01:47:31;;;;;;;34.33;3.92;;;;;;;;;;10462664;28;20047;-76
2024/03/30 01:52:34;;;;;;;19.38;3.60;;;;;;;;;;10451906;28;20059;-77
2024/03/30 01:57:37;;;;;;;;;;;;;;;;;;10410171;28;20045;-77
2024/03/30 02:02:40;;;;;;;36.78;5.28;;;;;;;;;;10445497;28;19978;-78
2024/03/30 02:07:44;;;;;;;23.13;3.80;;;;;;;;;;10455054;28;20040;-77
2024/03/30 02:12:46;;;;;;;31.83;4.05;;;;;;;;;;10446638;28;20117;-78
2024/03/30 02:17:49;;;;;;;24.52;3.63;;;;;;;;;;10447332;28;20477;-79
2024/03/30 02:22:51;;;;;;;46.20;4.57;;;;;;;;;;10448279;28;20045;-79
2024/03/30 02:27:54;;;;;;;36.58;4.53;;;;;;;;;;10437961;28;20078;-77
2024/03/30 02:32:56;;;;;;;44.40;5.15;;;;;;;;;;10443210;28;20052;-77
2024/03/30 02:37:58;;;;;;;47.00;6.32;;;;;;;;;;10433754;28;20044;-78
2024/03/30 02:43:02;;;;;;;28.08;3.38;;;;;;;;;;10448562;28;20051;-78
2024/03/30 02:48:06;;;;;;;21.27;3.15;;;;;;;;;;10449079;28;20040;-78
2024/03/30 02:53:07;;;;;;;21.08;2.55;;;;;;;;;;10426924;28;20056;-77
2024/03/30 02:58:11;;;;;;;40.08;5.13;;;;;;;;;;10441423;28;20044;-77
2024/03/30 03:03:13;;;;;;;28.58;2.67;;;;;;;;;;10430728;28;20045;-77
2024/03/30 03:08:15;;;;;;;17.73;2.88;;;;;;;;;;10445669;28;20052;-77
2024/03/30 03:13:18;;;;;;;40.92;3.08;;;;;;;;;;10441550;28;20106;-77
2024/03/30 03:18:20;;;;;;;30.55;3.33;;;;;;;;;;10449145;28;20119;-77
2024/03/30 03:23:24;;;;;;;27.05;3.10;;;;;;;;;;10448494;28;20558;-76
2024/03/30 03:28:28;;;;;;;22.08;3.55;;;;;;;;;;10441539;28;20091;-77
2024/03/30 03:33:31;;;;;;;18.45;2.10;;;;;;;;;;10455240;28;20037;-79
2024/03/30 03:38:33;;;;;;;19.83;2.80;;;;;;;;;;10446403;28;20489;-76
2024/03/30 03:43:40;;;;;;;20.13;3.42;;;;;;;;;;10449322;28;20159;-76
2024/03/30 03:48:41;;;;;;;43.60;4.63;;;;;;;;;;10445409;28;20063;-77
2024/03/30 03:53:44;;;;;;;29.60;3.53;;;;;;;;;;10445959;28;20596;-76
2024/03/30 03:58:47;;;;;;;31.70;3.80;;;;;;;;;;10449052;28;20102;-77
2024/03/30 04:03:49;;;;;;;31.43;4.73;;;;;;;;;;10438919;28;20037;-77
2024/03/30 04:08:51;;;;;;;16.30;1.83;;;;;;;;;;10429282;28;20167;-76
2024/03/30 04:13:54;;;;;;;15.25;2.25;;;;;;;;;;10435167;28;20444;-76
2024/03/30 04:18:56;;;;;;;16.25;2.67;;;;;;;;;;10444069;28;20058;-77
2024/03/30 04:23:59;;;;;;;24.73;3.50;;;;;;;;;;10440869;28;20052;-77
2024/03/30 04:29:04;;;;;;;7.88;2.15;;;;;;;;;;10423372;28;20049;-77
2024/03/30 04:34:06;;;;;;;30.85;3.25;;;;;;;;;;10425756;28;20033;-77
2024/03/30 04:39:08;;;;;;;24.63;4.25;;;;;;;;;;10439978;28;20207;-76
2024/03/30 04:44:11;;;;;;;19.10;2.83;;;;;;;;;;10438480;28;20041;-78
2024/03/30 04:49:13;;;;;;;28.25;4.15;;;;;;;;;;10450337;28;20847;-77
2024/03/30 04:54:15;;;;;;;6.10;1.75;;;;;;;;;;10442622;28;20045;-77
2024/03/30 04:59:19;;;;;;;13.15;1.80;;;;;;;;;;10438801;28;20098;-77
2024/03/30 05:04:20;;;;;;;19.58;2.85;;;;;;;;;;10443441;28;20051;-77
2024/03/30 05:09:22;;;;;;;26.00;2.20;;;;;;;;;;10450833;28;20464;-76
2024/03/30 05:14:25;;;;;;;19.25;2.90;;;;;;;;;;10453463;28;20088;-76
2024/03/30 05:24:47;;;;;;;30.98;4.03;;;;;;;;;;10446625;28;20399;-75
2024/03/30 05:29:51;;;;;;;29.52;3.67;;;;;;;;;;10444334;28;20060;-75
2024/03/30 05:34:53;;;;;;;30.00;3.50;;;;;;;;;;10452403;28;20052;-75
2024/03/30 05:39:54;;;;;;;16.38;2.83;;;;;;;;;;10442597;28;20049;-77
2024/03/30 05:44:58;;;;;;;18.00;2.20;;;;;;;;;;10441486;28;20049;-74
2024/03/30 05:50:00;;;;;;;30.58;3.80;;;;;;;;;;10445760;28;20405;-74
2024/03/30 05:55:03;;;;;;;32.60;3.72;;;;;;;;;;10447691;28;20140;-75
2024/03/30 06:00:09;;;;;;;19.95;2.75;;;;;;;;;;10435629;28;20032;-78
2024/03/30 06:05:11;;;;;;;22.08;3.47;;;;;;;;;;10452214;28;20475;-77
2024/03/30 06:10:13;;;;;;;30.05;3.50;;;;;;;;;;10447501;28;20504;-77
2024/03/30 06:15:17;;;;;;;21.65;3.47;;;;;;;;;;10427304;28;20119;-76
2024/03/30 06:20:18;;;;;;;18.30;3.13;;;;;;;;;;10446113;28;20558;-75
2024/03/30 06:25:20;;;;;;;12.68;1.63;;;;;;;;;;10442819;28;20486;-76
2024/03/30 06:30:23;;;;;;;17.05;3.25;;;;;;;;;;10443802;28;20471;-75
2024/03/30 06:35:25;;;;;;;19.23;3.23;;;;;;;;;;10444786;28;20436;-76
2024/03/30 06:45:48;;;;;;;24.88;2.70;;;;;;;;;;10444622;28;20029;-77
2024/03/30 06:50:50;;;;;;;22.23;3.22;;;;;;;;;;10454527;28;20037;-76
2024/03/30 06:55:52;;;;;;;27.45;4.28;;;;;;;;;;10431154;28;20509;-76
2024/03/30 07:00:55;;;;;;;25.88;2.75;;;;;;;;;;10447585;28;20240;-75
2024/03/30 07:05:57;;;;;;;18.75;2.17;;;;;;;;;;10443590;28;20052;-76
2024/03/30 07:10:59;;;;;;;17.70;2.00;;;;;;;;;;10442516;28;20473;-77
2024/03/30 07:16:02;;;;;;;17.23;2.55;;;;;;;;;;10460799;28;20051;-74
2024/03/30 07:21:03;;;;;;;14.67;2.83;;;;;;;;;;10439153;28;20044;-74
2024/03/30 07:26:06;;;;;;;5.07;1.25;;;;;;;;;;10440605;28;20046;-77
2024/03/30 07:31:09;;;;;;;22.35;3.30;;;;;;;;;;10443597;28;20043;-76
2024/03/30 07:36:11;;;;;;;14.85;2.40;;;;;;;;;;10437606;28;20048;-77
2024/03/30 07:41:13;;;;;;;15.05;2.22;;;;;;;;;;10426253;28;20444;-78
2024/03/30 07:46:19;;;;;;;18.25;3.47;;;;;;;;;;10447979;28;20047;-76
2024/03/30 07:51:20;;;;;;;28.15;6.45;;;;;;;;;;10446510;28;20455;-73
2024/03/30 07:56:25;;;;;;;36.53;4.22;;;;;;;;;;10435560;28;20033;-73
2024/03/30 08:01:29;;;;;;;17.27;4.82;;;;;;;;;;10434409;28;20045;-74
2024/03/30 08:06:31;;;;;;;26.38;6.20;;;;;;;;;;10441091;28;20048;-72
2024/03/30 08:11:33;;;;;;;10.48;3.08;;;;;;;;;;10460259;28;20144;-75
2024/03/30 08:16:36;;;;;;;17.33;4.18;;;;;;;;;;10440184;28;20036;-75
2024/03/30 08:21:38;;;;;;;33.80;9.25;;;;;;;;;;10433676;28;20056;-73
2024/03/30 08:26:40;;;;;;;37.42;9.02;;;;;;;;;;10436150;28;20049;-73
2024/03/30 08:31:44;;;;;;;40.63;6.63;;;;;;;;;;10436672;28;20110;-73
2024/03/30 08:36:45;;;;;;;;;;;;;;;;;;10438419;28;20064;-73
2024/03/30 08:41:48;;;;;;;32.47;5.88;;;;;;;;;;10432857;28;19920;-74
2024/03/30 08:46:52;;;;;;;33.83;4.60;;;;;;;;;;10442890;28;20048;-74
2024/03/30 08:51:53;;;;;;;30.40;6.82;;;;;;;;;;10443569;28;20044;-75
2024/03/30 08:56:55;;;;;;;24.83;5.53;;;;;;;;;;10432951;28;20036;-75
2024/03/30 09:01:58;;;;;;;21.15;5.20;;;;;;;;;;10436111;28;20045;-75
2024/03/30 09:07:01;;;;;;;31.83;4.88;;;;;;;;;;10437499;28;20127;-75
2024/03/30 09:12:05;;;;;;;32.03;4.93;;;;;;;;;;10439422;28;20154;-80
2024/03/30 09:17:08;;;;;;;32.72;3.08;;;;;;;;;;10447119;28;20056;-80
2024/03/30 09:22:10;;;;;;;37.80;4.00;;;;;;;;;;10427984;28;20041;-79
2024/03/30 09:27:12;;;;;;;26.95;4.03;;;;;;;;;;10439885;28;20157;-80
2024/03/30 09:32:15;;;;;;;26.00;4.05;;;;;;;;;;10439519;28;20051;-80
2024/03/30 09:37:16;;;;;;;22.98;3.72;;;;;;;;;;10439296;28;20048;-79
2024/03/30 09:42:25;;;;;;;30.48;4.18;;;;;;;;;;10434286;28;20040;-79
2024/03/30 09:47:30;;;;;;;19.08;3.50;;;;;;;;;;10438482;28;20037;-79
2024/03/30 09:52:32;;;;;;;12.77;3.15;;;;;;;;;;10442299;28;20131;-79
2024/03/30 09:57:34;;;;;;;19.55;3.58;;;;;;;;;;10448215;28;20500;-79
2024/03/30 10:02:38;;;;;;;32.58;4.70;;;;;;;;;;10447463;28;20648;-80
2024/03/30 10:07:44;;;;;;;31.67;4.53;;;;;;;;;;10442040;28;20106;-79
2024/03/30 10:12:51;;;;;;;21.80;3.17;;;;;;;;;;10459995;28;20055;-79
2024/03/30 10:17:58;;;;;;;25.05;3.60;;;;;;;;;;10444515;28;20048;-79
2024/03/30 10:23:00;;;;;;;38.45;4.72;;;;;;;;;;10444866;28;20049;-80
2024/03/30 10:28:02;;;;;;;23.20;3.25;;;;;;;;;;10435693;28;20036;-81
2024/03/30 10:33:12;;;;;;;19.58;3.90;;;;;;;;;;10441394;28;20045;-81
2024/03/30 10:38:14;;;;;;;44.88;4.78;;;;;;;;;;10458804;28;20056;-80
2024/03/30 10:43:15;;;;;;;26.63;4.03;;;;;;;;;;10444588;28;20043;-80
2024/03/30 10:48:18;;;;;;;28.23;4.63;;;;;;;;;;10447787;28;20036;-79
2024/03/30 10:53:21;;;;;;;26.27;4.15;;;;;;;;;;10447461;28;20099;-80
2024/03/30 10:58:23;;;;;;;37.78;4.88;;;;;;;;;;10440389;28;20037;-80
2024/03/30 11:03:30;;;;;;;31.58;4.32;;;;;;;;;;10442090;28;20055;-80
2024/03/30 11:08:33;;;;;;;17.33;3.17;;;;;;;;;;10448463;28;20063;-80
2024/03/30 11:14:00;;;;;;;18.50;3.30;;;;;;;;;;10452221;28;20381;-80
2024/03/30 11:19:12;;;;;;;30.17;4.15;;;;;;;;;;10447445;28;20040;-80
2024/03/30 11:24:15;;;;;;;39.72;4.95;;;;;;;;;;10438295;28;20056;-80
2024/03/30 11:29:26;;;;;;;20.40;3.42;;;;;;;;;;10443150;28;20083;-80
2024/03/30 11:34:33;;;;;;;34.03;5.10;;;;;;;;;;10437766;28;20559;-79
2024/03/30 11:39:41;;;;;;;43.78;5.43;;;;;;;;;;10428619;28;20543;-80
2024/03/30 11:44:43;;;;;;;20.13;3.03;;;;;;;;;;10439455;28;20493;-80
2024/03/30 11:49:47;;;;;;;35.75;4.55;;;;;;;;;;10427947;28;20729;-80
2024/03/30 11:54:49;;;;;;;29.42;4.07;;;;;;;;;;10444670;28;20392;-79
2024/03/30 11:59:54;;;;;;;35.13;4.13;;;;;;;;;;10454178;28;20544;-80
2024/03/30 12:05:01;;;;;;;30.73;4.60;;;;;;;;;;10453538;28;20048;-79
2024/03/30 12:10:07;;;;;;;31.52;3.78;;;;;;;;;;10434572;28;20456;-80
2024/03/30 12:15:14;;;;;;;30.35;4.45;;;;;;;;;;10458467;28;20078;-79
2024/03/30 12:20:18;;;;;;;34.03;4.05;;;;;;;;;;10452360;28;20495;-80
2024/03/30 12:25:21;;;;;;;32.72;4.03;;;;;;;;;;10436431;28;20033;-81
2024/03/30 12:30:22;;;;;;;44.25;4.80;;;;;;;;;;10424300;28;20052;-80
2024/03/30 12:35:26;;;;;;;29.55;3.42;;;;;;;;;;10440071;28;20095;-80
2024/03/30 12:40:30;;;;;;;40.65;3.90;;;;;;;;;;10437990;28;20050;-79
2024/03/30 12:45:32;;;;;;;40.97;4.05;;;;;;;;;;10440400;28;20045;-81
2024/03/30 12:50:36;;;;;;;34.03;3.75;;;;;;;;;;10450741;28;20113;-79
2024/03/30 12:55:38;;;;;;;26.23;3.53;;;;;;;;;;10428711;28;20049;-79
2024/03/30 13:00:44;;;;;;;21.60;3.60;;;;;;;;;;10434452;28;20036;-79
2024/03/30 13:05:48;;;;;;;24.42;4.00;;;;;;;;;;10451362;28;20203;-80
2024/03/30 13:10:52;;;;;;;29.13;3.17;;;;;;;;;;10438516;28;20558;-79
2024/03/30 13:15:54;;;;;;;15.73;2.67;;;;;;;;;;10437885;28;20358;-79
2024/03/30 13:20:58;;;;;;;;;;;;;;;;;;10454284;28;20125;-78
2024/03/30 13:26:05;;;;;;;22.65;4.20;;;;;;;;;;10439221;28;20015;-79
2024/03/30 13:31:07;;;;;;;21.02;3.10;;;;;;;;;;10430221;28;20412;-79
2024/03/30 13:36:09;;;;;;;16.27;2.83;;;;;;;;;;10446630;28;20077;-79
2024/03/30 13:41:12;;;;;;;23.85;3.22;;;;;;;;;;10451552;28;20051;-80
2024/03/30 13:46:14;;;;;;;35.38;4.60;;;;;;;;;;10448661;28;20028;-79
2024/03/30 13:51:17;;;;;;;39.70;3.92;;;;;;;;;;10446268;28;20099;-79
2024/03/30 13:56:19;;;;;;;;;;;;;;;;;;10448926;28;20072;-79
2024/03/30 14:01:22;;;;;;;21.67;2.50;;;;;;;;;;10467404;28;19921;-80
2024/03/30 14:06:24;;;;;;;40.35;4.10;;;;;;;;;;10445275;28;20036;-80
2024/03/30 14:11:26;;;;;;;;;;;;;;;;;;10448198;28;20045;-79
2024/03/30 14:16:29;;;;;;;32.17;4.75;;;;;;;;;;10462881;28;19920;-79
2024/03/30 14:21:31;;;;;;;34.95;5.25;;;;;;;;;;10451153;28;20040;-76
2024/03/30 14:26:34;;;;;;;32.60;4.72;;;;;;;;;;10435785;28;20481;-79
2024/03/30 14:31:38;;;;;;;28.27;5.22;;;;;;;;;;10437922;28;20070;-78
2024/03/30 14:36:39;;;;;;;27.52;4.05;;;;;;;;;;10443896;28;20397;-79
2024/03/30 14:41:43;;;;;;;26.02;4.75;;;;;;;;;;10442864;28;20055;-81
2024/03/30 14:46:46;;;;;;;17.35;2.05;;;;;;;;;;10424526;28;20325;-79
2024/03/30 14:51:48;;;;;;;22.38;3.60;;;;;;;;;;10445363;28;20041;-79
2024/03/30 14:56:52;;;;;;;25.45;3.60;;;;;;;;;;10448211;28;20036;-78
2024/03/30 15:01:55;;;;;;;26.27;3.35;;;;;;;;;;10442491;28;20052;-80
2024/03/30 15:06:57;;;;;;;21.08;2.15;;;;;;;;;;10445891;28;20055;-80
2024/03/30 15:11:59;;;;;;;27.93;2.80;;;;;;;;;;10438957;28;20048;-79
2024/03/30 15:17:03;;;;;;;28.67;3.27;;;;;;;;;;10437560;28;20040;-78
2024/03/30 15:22:05;;;;;;;22.63;4.28;;;;;;;;;;10455676;28;21120;-78
2024/03/30 15:27:07;;;;;;;32.53;3.40;;;;;;;;;;10442988;28;20046;-79
2024/03/30 15:32:20;;;;;;;22.42;2.65;;;;;;;;;;10437031;28;20124;-79
2024/03/30 15:37:21;;;;;;;20.67;2.65;;;;;;;;;;10434976;28;20045;-77
2024/03/30 15:42:29;;;;;;;28.20;3.15;;;;;;;;;;10436340;28;20048;-77
2024/03/30 15:47:32;;;;;;;26.65;3.30;;;;;;;;;;10432553;28;20045;-78
2024/03/30 15:52:34;;;;;;;25.38;2.70;;;;;;;;;;10456277;28;20052;-78
2024/03/30 15:57:36;;;;;;;21.33;2.13;;;;;;;;;;10437176;28;20039;-77
2024/03/30 16:02:38;;;;;;;41.47;4.32;;;;;;;;;;10437780;28;20086;-79
2024/03/30 16:07:42;;;;;;;22.75;2.30;;;;;;;;;;10438993;28;20036;-79
2024/03/30 16:12:45;;;;;;;33.70;4.13;;;;;;;;;;10441846;28;20570;-77
2024/03/30 16:17:48;;;;;;;24.77;2.87;;;;;;;;;;10423659;28;20485;-77
2024/03/30 16:22:55;;;;;;;28.45;4.40;;;;;;;;;;10459355;28;20044;-77
2024/03/30 16:27:57;;;;;;;32.55;3.80;;;;;;;;;;10438565;28;20040;-78
2024/03/30 16:33:01;;;;;;;23.53;3.83;;;;;;;;;;10447934;28;20048;-77
2024/03/30 16:38:03;;;;;;;26.23;4.05;;;;;;;;;;10438770;28;20052;-77
2024/03/30 16:43:08;;;;;;;26.85;3.40;;;;;;;;;;10438327;28;20049;-79
2024/03/30 16:48:11;;;;;;;12.63;2.50;;;;;;;;;;10431158;28;20528;-77
2024/03/30 16:53:16;;;;;;;34.42;4.93;;;;;;;;;;10442389;28;20044;-79
2024/03/30 16:58:18;;;;;;;16.60;2.58;;;;;;;;;;10434996;28;20454;-79
2024/03/30 17:03:24;;;;;;;30.60;4.38;;;;;;;;;;10444648;28;20051;-79
2024/03/30 17:08:29;;;;;;;27.63;3.25;;;;;;;;;;10438501;28;20036;-79
2024/03/30 17:13:31;;;;;;;24.30;3.95;;;;;;;;;;10447303;28;20468;-78
2024/03/30 17:18:35;;;;;;;42.72;4.95;;;;;;;;;;10443142;28;20048;-77
2024/03/30 17:23:36;;;;;;;27.27;2.35;;;;;;;;;;10446656;28;20103;-78
2024/03/30 17:28:38;;;;;;;20.75;2.38;;;;;;;;;;10443558;28;20464;-77
2024/03/30 17:33:42;;;;;;;34.47;3.75;;;;;;;;;;10442315;28;20052;-78
2024/03/30 17:38:44;;;;;;;27.40;3.80;;;;;;;;;;10446904;28;20051;-77
2024/03/30 17:43:45;;;;;;;37.70;5.18;;;;;;;;;;10439540;28;20049;-78
2024/03/30 17:48:49;;;;;;;38.97;4.47;;;;;;;;;;10444368;28;20040;-78
2024/03/30 17:53:51;;;;;;;;;;;;;;;;;;10441950;28;20270;-78
2024/03/30 17:58:53;;;;;;;24.95;4.10;;;;;;;;;;10461457;28;19924;-78
2024/03/30 18:03:56;;;;;;;21.52;2.90;;;;;;;;;;10446261;28;20136;-78
2024/03/30 18:08:58;;;;;;;32.58;5.25;;;;;;;;;;10447479;28;20538;-79
2024/03/30 18:14:00;;;;;;;25.98;4.47;;;;;;;;;;10444236;28;20048;-79
2024/03/30 18:19:04;;;;;;;34.28;4.10;;;;;;;;;;10446040;28;20090;-79
2024/03/30 18:24:07;;;;;;;33.38;3.92;;;;;;;;;;10448894;28;20036;-78
2024/03/30 18:29:10;;;;;;;30.75;4.22;;;;;;;;;;10458113;28;20040;-78
2024/03/30 18:34:16;;;;;;;18.83;3.15;;;;;;;;;;10453109;28;20039;-76
2024/03/30 18:39:18;;;;;;;20.70;2.70;;;;;;;;;;10446907;28;20037;-77
2024/03/30 18:44:21;;;;;;;27.35;4.22;;;;;;;;;;10447858;28;20402;-77
2024/03/30 18:49:24;;;;;;;31.15;4.03;;;;;;;;;;10449848;28;20047;-78
2024/03/30 18:54:29;;;;;;;22.05;5.10;;;;;;;;;;10445949;28;20060;-79
2024/03/30 18:59:30;;;;;;;19.25;2.65;;;;;;;;;;10437832;28;20049;-77
2024/03/30 19:04:34;;;;;;;37.05;3.90;;;;;;;;;;10443343;28;20467;-77
2024/03/30 19:09:37;;;;;;;31.08;3.47;;;;;;;;;;10446191;28;20444;-77
2024/03/30 19:14:40;;;;;;;32.33;4.23;;;;;;;;;;10439750;28;20122;-78
2024/03/30 19:19:43;;;;;;;15.93;2.78;;;;;;;;;;10451482;28;20040;-78
2024/03/30 19:24:45;;;;;;;27.42;3.47;;;;;;;;;;10438968;28;20045;-77
2024/03/30 19:29:48;;;;;;;30.38;4.25;;;;;;;;;;10456375;28;20052;-79
2024/03/30 19:34:52;;;;;;;34.05;3.63;;;;;;;;;;10440672;28;20060;-77
2024/03/30 19:39:54;;;;;;;29.55;4.43;;;;;;;;;;10439319;28;20055;-77
2024/03/30 19:45:00;;;;;;;20.92;3.30;;;;;;;;;;10441802;28;20040;-78
2024/03/30 19:50:08;;;;;;;37.67;5.88;;;;;;;;;;10421639;28;20095;-76
2024/03/30 19:55:10;;;;;;;;;;;;;;;;;;10440094;28;20041;-76
2024/03/30 20:00:12;;;;;;;33.35;4.97;;;;;;;;;;10449029;28;19921;-78
2024/03/30 20:05:15;;;;;;;13.23;2.92;;;;;;;;;;10441006;28;20047;-76
2024/03/30 20:10:17;;;;;;;14.27;2.25;;;;;;;;;;10446093;28;20052;-78
2024/03/30 20:15:19;;;;;;;14.05;2.47;;;;;;;;;;10436551;28;20114;-77
2024/03/30 20:20:24;;;;;;;14.45;2.10;;;;;;;;;;10457686;28;20039;-78
2024/03/30 20:25:26;;;;;;;6.65;1.05;;;;;;;;;;10440536;28;20045;-76
2024/03/30 20:30:28;;;;;;;12.70;2.50;;;;;;;;;;10444752;28;20418;-78
2024/03/30 20:35:32;;;;;;;14.68;2.42;;;;;;;;;;10450386;28;20045;-77
2024/03/30 20:40:35;;;;;;;16.88;2.63;;;;;;;;;;10433549;28;20044;-77
2024/03/30 20:45:40;;;;;;;10.40;1.85;;;;;;;;;;10434733;28;20041;-77
2024/03/30 20:50:44;;;;;;;12.52;2.70;;;;;;;;;;10440980;28;20120;-77
2024/03/30 20:55:47;;;;;;;13.88;2.55;;;;;;;;;;10439725;28;20037;-78
2024/03/30 21:00:48;;;;;;;20.90;2.47;;;;;;;;;;10434357;28;20036;-79
2024/03/30 21:05:51;;;;;;;11.38;1.95;;;;;;;;;;10437133;28;20051;-77
2024/03/30 21:10:54;;;;;;;5.25;1.05;;;;;;;;;;10436310;28;20041;-76
2024/03/30 21:15:58;;;;;;;15.43;2.40;;;;;;;;;;10440542;28;20102;-78
2024/03/30 21:21:02;;;;;;;17.48;2.20;;;;;;;;;;10450906;28;20098;-78
2024/03/30 21:26:05;;;;;;;19.75;2.38;;;;;;;;;;10449197;28;20140;-77
2024/03/30 21:31:07;;;;;;;4.70;1.13;;;;;;;;;;10461904;28;20029;-76
2024/03/30 21:36:10;;;;;;;10.57;1.33;;;;;;;;;;10431111;28;20477;-77
2024/03/30 21:41:13;;;;;;;14.55;1.60;;;;;;;;;;10447230;28;20044;-77
2024/03/30 21:46:14;;;;;;;9.02;1.67;;;;;;;;;;10451637;28;20123;-78
2024/03/30 21:51:18;;;;;;;11.02;1.70;;;;;;;;;;10450521;28;20051;-78
2024/03/30 21:56:20;;;;;;;;;;;;;;;;;;10464474;28;20064;-77
2024/03/30 22:01:23;;;;;;;13.05;1.48;;;;;;;;;;10452110;28;19959;-77
2024/03/30 22:06:27;;;;;;;16.50;2.42;;;;;;;;;;10458141;28;20080;-77
2024/03/30 22:11:29;;;;;;;8.52;0.90;;;;;;;;;;10458278;28;20037;-75
2024/03/30 22:16:34;;;;;;;2.47;0.60;;;;;;;;;;10453683;28;20089;-77
2024/03/30 22:21:40;;;;;;;14.60;2.30;;;;;;;;;;10430972;28;20033;-77
2024/03/30 22:26:49;;;;;;;12.93;1.77;;;;;;;;;;10454584;28;20147;-76
2024/03/30 22:31:53;;;;;;;9.57;1.85;;;;;;;;;;10455064;28;20094;-77
2024/03/30 22:36:57;;;;;;;10.23;1.85;;;;;;;;;;10451607;28;20053;-77
2024/03/30 22:42:03;;;;;;;13.80;1.88;;;;;;;;;;10448186;28;20041;-77
2024/03/30 22:47:06;;;;;;;10.55;2.08;;;;;;;;;;10468795;28;20186;-78
2024/03/30 22:52:09;;;;;;;11.30;1.42;;;;;;;;;;10458386;28;20045;-76
2024/03/30 22:57:10;;;;;;;25.50;5.28;;;;;;;;;;10447559;28;20047;-75
2024/03/30 23:02:13;;;;;;;36.08;6.57;;;;;;;;;;10464704;28;20044;-76
2024/03/30 23:07:17;;;;;;;46.53;7.60;;;;;;;;;;10442114;28;20082;-78
2024/03/30 23:12:18;;;;;;;38.58;6.57;;;;;;;;;;10469098;28;20033;-78
2024/03/30 23:17:20;;;;;;;32.08;6.80;;;;;;;;;;10474363;28;20048;-76
2024/03/30 23:22:23;;;;;;;37.13;6.82;;;;;;;;;;10471066;28;20044;-78
2024/03/30 23:27:25;;;;;;;36.07;7.13;;;;;;;;;;10458590;28;20079;-78
2024/03/30 23:32:26;;;;;;;37.13;6.32;;;;;;;;;;10461974;28;20045;-79
2024/03/30 23:37:29;;;;;;;26.50;6.07;;;;;;;;;;10456316;28;20434;-76
2024/03/30 23:42:32;;;;;;;41.38;6.47;;;;;;;;;;10468386;28;20554;-76
2024/03/30 23:47:33;;;;;;;30.02;6.43;;;;;;;;;;10447326;28;20089;-76
2024/03/30 23:52:37;;;;;;;27.67;6.85;;;;;;;;;;10450560;28;20658;-75
2024/03/30 23:57:40;;;;;;;28.65;6.88;;;;;;;;;;10450402;28;20040;-76
